»·PEaware :: N900TS KSNA-KHND

N900TS :: KSNA-KHND

FLIGHT INFORMATION

Flight Status: Arrived
Operator: Privately registered:
United States
More flights under this callsign
Pilot: Vlad D. (11271)
Aircraft: SOCATA TBM-900
(TBM9)
More flights by this aircraft type
Origin: KSNA John Wayne-Orange Co
United States
Destination: KHND Henderson
United States
More flights between these airports :: More routes between these airports
Route: MUSEL8 DAG JOMIX1
File this flight plan on PilotEdge
Remarks:
Altitude:
(Current/Filed)
27,000ft
Speed:
(Current/Filed)
280kts
Departed: 28-Mar-19 08:25 AM
Arrived: 28-Mar-19 09:26 AM
Distance/Time
Traveled:
193nm/1:01
Distance/Time
To Go:
Arrived

Flight Plot

Page will automatically refresh every two minutes.

Flight plan parsing failed; only flown route is shown


Map Options




Map Legend


Flown Route
Filed Route
Departure Airport
Arrival Airport
Navaid (VOR, NDB)
Fix

Horizontal Profiles

Position Reports

Time Latitude Longitude Heading Altitude Ground
Speed
28-Mar-19 07:45 33.670002 -117.874527 209 52ft 0kts
28-Mar-19 07:47 33.670002 -117.874527 209 52ft 0kts
28-Mar-19 07:48 33.670002 -117.874527 209 52ft 0kts
28-Mar-19 07:49 33.670002 -117.874527 209 52ft 0kts
28-Mar-19 07:50 33.670002 -117.874527 209 52ft 0kts
28-Mar-19 07:50 33.670002 -117.874527 209 52ft 0kts
28-Mar-19 07:52 33.670002 -117.874527 209 52ft 0kts
28-Mar-19 07:52 33.670002 -117.874527 209 52ft 0kts
28-Mar-19 07:53 33.670002 -117.874527 209 52ft 0kts
28-Mar-19 07:54 33.670002 -117.874527 209 52ft 0kts
28-Mar-19 07:55 33.670002 -117.874527 209 52ft 0kts
28-Mar-19 07:57 33.670002 -117.874527 209 52ft 0kts
28-Mar-19 07:57 33.670002 -117.874527 209 52ft 0kts
28-Mar-19 07:58 33.670002 -117.874527 209 52ft 0kts
28-Mar-19 07:59 33.670002 -117.874527 209 52ft 0kts
28-Mar-19 08:00 33.670002 -117.874527 209 52ft 0kts
28-Mar-19 08:01 33.670002 -117.874527 209 52ft 0kts
28-Mar-19 08:02 33.670002 -117.874527 209 52ft 0kts
28-Mar-19 08:03 33.670002 -117.874527 209 52ft 0kts
28-Mar-19 08:04 33.670002 -117.874527 209 52ft 0kts
28-Mar-19 08:05 33.670002 -117.874527 209 52ft 0kts
28-Mar-19 08:06 33.670002 -117.874527 209 52ft 0kts
28-Mar-19 08:07 33.670002 -117.874527 209 52ft 0kts
28-Mar-19 08:08 33.670002 -117.874527 209 52ft 0kts
28-Mar-19 08:09 33.670002 -117.874527 209 52ft 0kts
28-Mar-19 08:10 33.670002 -117.874527 209 52ft 0kts
28-Mar-19 08:11 33.670002 -117.874527 209 52ft 0kts
28-Mar-19 08:12 33.670002 -117.874527 209 52ft 0kts
28-Mar-19 08:13 33.670002 -117.874527 209 52ft 0kts
28-Mar-19 08:14 33.670002 -117.874527 209 52ft 0kts
28-Mar-19 08:15 33.669985 -117.874538 207 52ft 0kts
28-Mar-19 08:16 33.671059 -117.873260 27 52ft 10kts
28-Mar-19 08:17 33.674017 -117.871394 26 49ft 10kts
28-Mar-19 08:18 33.676233 -117.869983 27 49ft 7kts
28-Mar-19 08:19 33.679666 -117.867935 14 42ft 18kts
28-Mar-19 08:20 33.681262 -117.866795 76 40ft 3kts
28-Mar-19 08:21 33.681207 -117.866414 118 39ft 0kts
28-Mar-19 08:22 33.681181 -117.866355 117 39ft 2kts
28-Mar-19 08:23 33.680098 -117.865964 209 41ft 31kts
28-Mar-19 08:24 33.651705 -117.881550 197 1041ft 141kts
28-Mar-19 08:25 33.614397 -117.897097 196 2945ft 145kts
28-Mar-19 08:26 33.585401 -117.923073 276 4880ft 150kts
28-Mar-19 08:27 33.605899 -117.964073 336 6907ft 137kts
28-Mar-19 08:28 33.650704 -117.985136 336 7002ft 198kts
28-Mar-19 08:29 33.697238 -118.009242 332 8538ft 164kts
28-Mar-19 08:30 33.738335 -118.030852 328 10503ft 159kts
28-Mar-19 08:31 33.778106 -118.051496 336 12441ft 166kts
28-Mar-19 08:32 33.827993 -118.014613 31 13007ft 247kts
28-Mar-19 08:33 33.885239 -117.962506 30 13537ft 248kts
28-Mar-19 08:34 33.937886 -117.914768 29 15362ft 230kts
28-Mar-19 08:35 33.987791 -117.869460 28 17226ft 219kts
28-Mar-19 08:36 34.035311 -117.826283 27 19097ft 214kts
28-Mar-19 08:37 34.082850 -117.781276 40 21019ft 226kts
28-Mar-19 08:38 34.125521 -117.723708 41 22945ft 234kts
28-Mar-19 08:39 34.169513 -117.664405 41 24862ft 241kts
28-Mar-19 08:40 34.214279 -117.603975 40 26752ft 243kts
28-Mar-19 08:41 34.264898 -117.535589 43 27281ft 311kts
28-Mar-19 08:42 34.327025 -117.451303 43 27256ft 353kts
28-Mar-19 08:43 34.394211 -117.359995 43 27239ft 366kts
28-Mar-19 08:44 34.461696 -117.268051 44 27223ft 365kts
28-Mar-19 08:45 34.529084 -117.176015 44 27226ft 364kts
28-Mar-19 08:46 34.596532 -117.083645 44 27226ft 364kts
28-Mar-19 08:47 34.663680 -116.991440 44 27217ft 364kts
28-Mar-19 08:48 34.730427 -116.899554 45 27209ft 361kts
28-Mar-19 08:49 34.796777 -116.807940 44 27204ft 359kts
28-Mar-19 08:50 34.862786 -116.716557 44 27205ft 359kts
28-Mar-19 08:51 34.928674 -116.624563 49 27198ft 362kts
28-Mar-19 08:52 34.956989 -116.509149 99 27203ft 358kts
28-Mar-19 08:53 34.936628 -116.391661 104 27208ft 356kts
28-Mar-19 08:54 34.919738 -116.271824 104 27212ft 356kts
28-Mar-19 08:55 34.903029 -116.153501 104 27234ft 354kts
28-Mar-19 08:56 34.886140 -116.034763 104 27246ft 354kts
28-Mar-19 08:57 34.869219 -115.916653 104 26928ft 352kts
28-Mar-19 08:58 34.852449 -115.800445 104 26235ft 346kts
28-Mar-19 08:59 34.835649 -115.684899 104 25570ft 347kts
28-Mar-19 09:00 34.818642 -115.568669 104 24906ft 347kts
28-Mar-19 09:01 34.801729 -115.453865 104 24239ft 341kts
28-Mar-19 09:02 34.789204 -115.341384 77 24089ft 341kts
28-Mar-19 09:03 34.854620 -115.265147 31 24127ft 327kts
28-Mar-19 09:04 34.927424 -115.199037 31 24126ft 327kts
28-Mar-19 09:05 35.000882 -115.132137 31 24158ft 329kts
28-Mar-19 09:06 35.078219 -115.061552 32 22688ft 355kts
28-Mar-19 09:07 35.156105 -114.990237 33 20494ft 343kts
28-Mar-19 09:08 35.235215 -114.938383 6 18151ft 308kts
28-Mar-19 09:09 35.315713 -114.915954 7 15826ft 290kts
28-Mar-19 09:10 35.392546 -114.894135 8 13516ft 279kts
28-Mar-19 09:11 35.465517 -114.888924 337 11461ft 252kts
28-Mar-19 09:12 35.531776 -114.913269 338 9857ft 248kts
28-Mar-19 09:13 35.598014 -114.937424 338 8260ft 250kts
28-Mar-19 09:14 35.663727 -114.961409 338 7266ft 231kts
28-Mar-19 09:15 35.723456 -114.983185 338 7287ft 225kts
28-Mar-19 09:16 35.784522 -115.005400 338 6871ft 238kts
28-Mar-19 09:17 35.850356 -115.030155 338 5597ft 250kts
28-Mar-19 09:18 35.912873 -115.053766 338 5754ft 219kts
28-Mar-19 09:19 35.970694 -115.071522 3 6081ft 225kts
28-Mar-19 09:20 36.035301 -115.061970 3 5323ft 229kts
28-Mar-19 09:21 36.062370 -115.107551 252 3625ft 187kts
28-Mar-19 09:22 36.031877 -115.126362 195 3393ft 118kts
28-Mar-19 09:23 36.002636 -115.134646 192 2886ft 91kts
28-Mar-19 09:24 35.979829 -115.135308 187 2407ft 71kts
28-Mar-19 09:25 35.971655 -115.135459 183 2438ft 15kts
28-Mar-19 09:26 35.972579 -115.137050 5 2431ft 11kts
28-Mar-19 09:27 35.974579 -115.137623 270 2421ft 4kts
28-Mar-19 09:28 35.974759 -115.137856 357 2420ft 0kts
28-Mar-19 09:29 35.974759 -115.137856 357 2420ft 0kts
28-Mar-19 09:30 35.974759 -115.137856 357 2420ft 0kts

Navigation Log

Ident Type
Flight plan parsing failed, navigation log unavailable